Wetterdaten: Freitag, 30.04.2010
Datum Zeit Temp. A. Feuchte A. Luftdruck Regen Wind Richtung Richtung Sonnenschein UV Solar Windben
30.04.2010 00:00 18,5 C 58 % 1005,2 hPa 0,0 mm 0,0 km/h (0 Bft) S-SO 157 0 min 0 UV-I 0 W/m 6,4 km/h (2 Bft)
30.04.2010 00:10 18,4 C 58 % 1005,1 hPa 0,0 mm 0,0 km/h (0 Bft) S-SO 157 0 min 0 UV-I 0 W/m 4,8 km/h (1 Bft)
30.04.2010 00:20 18,3 C 58 % 1004,9 hPa 0,0 mm 1,6 km/h (1 Bft) SO 135 0 min 0 UV-I 0 W/m 6,4 km/h (2 Bft)
30.04.2010 00:30 18,2 C 59 % 1004,7 hPa 0,0 mm 0,0 km/h (0 Bft) O-SO 112 0 min 0 UV-I 0 W/m 4,8 km/h (1 Bft)
30.04.2010 00:40 18,1 C 59 % 1004,5 hPa 0,0 mm 1,6 km/h (1 Bft) SO 135 0 min 0 UV-I 0 W/m 6,4 km/h (2 Bft)
30.04.2010 00:50 18,2 C 58 % 1004,0 hPa 0,0 mm 0,0 km/h (0 Bft) SO 135 0 min 0 UV-I 0 W/m 3,2 km/h (1 Bft)
30.04.2010 01:00 18,3 C 58 % 1003,8 hPa 0,0 mm 1,6 km/h (1 Bft) SO 135 0 min 0 UV-I 0 W/m 6,4 km/h (2 Bft)
30.04.2010 01:10 18,2 C 58 % 1003,6 hPa 0,0 mm 0,0 km/h (0 Bft) S-SO 157 0 min 0 UV-I 0 W/m 4,8 km/h (1 Bft)
30.04.2010 01:20 18,2 C 58 % 1003,4 hPa 0,0 mm 0,0 km/h (0 Bft) S-SO 157 0 min 0 UV-I 0 W/m 3,2 km/h (1 Bft)
30.04.2010 01:30 18,2 C 57 % 1003,1 hPa 0,0 mm 0,0 km/h (0 Bft) S-SO 157 0 min 0 UV-I 0 W/m 3,2 km/h (1 Bft)
30.04.2010 01:40 18,1 C 58 % 1002,9 hPa 0,0 mm 0,0 km/h (0 Bft) S-SO 157 0 min 0 UV-I 0 W/m 1,6 km/h (1 Bft)
30.04.2010 01:50 18,1 C 57 % 1002,8 hPa 0,0 mm 0,0 km/h (0 Bft) S-SO 157 0 min 0 UV-I 0 W/m 3,2 km/h (1 Bft)
30.04.2010 02:00 18,3 C 56 % 1002,7 hPa 0,0 mm 0,0 km/h (0 Bft) S-SO 157 0 min 0 UV-I 0 W/m 1,6 km/h (1 Bft)
30.04.2010 02:10 18,4 C 57 % 1002,6 hPa 0,0 mm 0,0 km/h (0 Bft) S-SO 157 0 min 0 UV-I 0 W/m 1,6 km/h (1 Bft)
30.04.2010 02:20 18,5 C 56 % 1002,6 hPa 0,0 mm 0,0 km/h (0 Bft) S-SO 157 0 min 0 UV-I 0 W/m 3,2 km/h (1 Bft)
30.04.2010 02:30 18,8 C 55 % 1002,7 hPa 0,0 mm 0,0 km/h (0 Bft) S-SO 157 0 min 0 UV-I 0 W/m 1,6 km/h (1 Bft)
30.04.2010 02:40 19,1 C 54 % 1002,7 hPa 0,0 mm 0,0 km/h (0 Bft) S-SW 202 0 min 0 UV-I 0 W/m 6,4 km/h (2 Bft)
30.04.2010 02:50 19,4 C 53 % 1002,8 hPa 0,0 mm 1,6 km/h (1 Bft) S-SW 202 0 min 0 UV-I 0 W/m 8,0 km/h (2 Bft)
30.04.2010 03:00 19,8 C 52 % 1002,8 hPa 0,0 mm 1,6 km/h (1 Bft) S-SW 202 0 min 0 UV-I 0 W/m 6,4 km/h (2 Bft)
30.04.2010 03:10 20,0 C 52 % 1002,7 hPa 0,0 mm 1,6 km/h (1 Bft) S-SW 202 0 min 0 UV-I 0 W/m 14,5 km/h (3 Bft)
30.04.2010 03:20 20,2 C 51 % 1002,4 hPa 0,0 mm 1,6 km/h (1 Bft) SW 225 0 min 0 UV-I 0 W/m 8,0 km/h (2 Bft)
30.04.2010 03:30 20,2 C 53 % 1002,6 hPa 0,0 mm 4,8 km/h (1 Bft) S-SW 202 0 min 0 UV-I 0 W/m 14,5 km/h (3 Bft)
30.04.2010 03:40 20,1 C 53 % 1002,4 hPa 0,0 mm 3,2 km/h (1 Bft) SW 225 0 min 0 UV-I 0 W/m 9,7 km/h (2 Bft)
30.04.2010 03:50 20,0 C 53 % 1002,3 hPa 0,0 mm 3,2 km/h (1 Bft) SW 225 0 min 0 UV-I 0 W/m 16,1 km/h (3 Bft)
30.04.2010 04:00 20,0 C 53 % 1002,6 hPa 0,0 mm 4,8 km/h (1 Bft) SW 225 0 min 0 UV-I 0 W/m 11,3 km/h (2 Bft)
30.04.2010 04:10 20,1 C 53 % 1002,7 hPa 0,0 mm 8,0 km/h (2 Bft) S-SW 202 0 min 0 UV-I 0 W/m 25,7 km/h (4 Bft)
30.04.2010 04:20 20,1 C 55 % 1002,7 hPa 0,0 mm 6,4 km/h (2 Bft) S-SW 202 0 min 0 UV-I 0 W/m 20,9 km/h (4 Bft)
30.04.2010 04:30 19,9 C 57 % 1002,8 hPa 0,0 mm 8,0 km/h (2 Bft) SW 225 0 min 0 UV-I 0 W/m 19,3 km/h (3 Bft)
30.04.2010 04:40 19,7 C 58 % 1002,9 hPa 0,0 mm 4,8 km/h (1 Bft) SW 225 0 min 0 UV-I 0 W/m 14,5 km/h (3 Bft)
30.04.2010 04:50 19,4 C 58 % 1003,1 hPa 0,0 mm 4,8 km/h (1 Bft) S-SW 202 0 min 0 UV-I 0 W/m 22,5 km/h (4 Bft)
30.04.2010 05:00 19,4 C 59 % 1003,1 hPa 0,0 mm 6,4 km/h (2 Bft) SW 225 0 min 0 UV-I 0 W/m 14,5 km/h (3 Bft)
30.04.2010 05:10 19,2 C 59 % 1003,3 hPa 0,0 mm 4,8 km/h (1 Bft) SW 225 0 min 0 UV-I 0 W/m 11,3 km/h (2 Bft)
30.04.2010 05:20 19,1 C 60 % 1003,3 hPa 0,0 mm 4,8 km/h (1 Bft) SW 225 0 min 0 UV-I 0 W/m 14,5 km/h (3 Bft)
30.04.2010 05:30 18,9 C 61 % 1003,6 hPa 0,0 mm 4,8 km/h (1 Bft) SW 225 0 min 0 UV-I 0 W/m 14,5 km/h (3 Bft)
30.04.2010 05:40 18,8 C 61 % 1003,6 hPa 0,0 mm 8,0 km/h (2 Bft) W-SW 247 0 min 0 UV-I 0 W/m 19,3 km/h (3 Bft)
30.04.2010 05:50 19,0 C 62 % 1003,6 hPa 0,0 mm 11,3 km/h (2 Bft) W-SW 247 0 min 0 UV-I 0 W/m 30,6 km/h (5 Bft)
30.04.2010 06:00 19,0 C 62 % 1003,9 hPa 0,0 mm 11,3 km/h (2 Bft) W-SW 247 0 min 0 UV-I 0 W/m 25,7 km/h (4 Bft)
30.04.2010 06:10 18,8 C 63 % 1004,0 hPa 0,0 mm 12,9 km/h (3 Bft) W 270 0 min 0 UV-I 0 W/m 30,6 km/h (5 Bft)
30.04.2010 06:20 18,4 C 65 % 1004,1 hPa 0,0 mm 14,5 km/h (3 Bft) W 270 0 min 0 UV-I 0 W/m 37,0 km/h (5 Bft)
30.04.2010 06:30 18,1 C 66 % 1004,3 hPa 0,0 mm 14,5 km/h (3 Bft) W 270 0 min 0 UV-I 7 W/m 33,8 km/h (5 Bft)
30.04.2010 06:40 17,7 C 68 % 1004,5 hPa 0,0 mm 11,3 km/h (2 Bft) W 270 0 min 0 UV-I 18 W/m 30,6 km/h (5 Bft)
30.04.2010 06:50 17,4 C 69 % 1004,6 hPa 0,0 mm 12,9 km/h (3 Bft) W 270 0 min 0 UV-I 30 W/m 29,0 km/h (5 Bft)
30.04.2010 07:00 17,3 C 70 % 1004,6 hPa 0,0 mm 8,0 km/h (2 Bft) W-SW 247 0 min 0 UV-I 37 W/m 22,5 km/h (4 Bft)
30.04.2010 07:10 17,1 C 70 % 1004,9 hPa 0,0 mm 9,7 km/h (2 Bft) W 270 0 min 0 UV-I 54 W/m 25,7 km/h (4 Bft)
30.04.2010 07:20 16,9 C 71 % 1005,1 hPa 0,0 mm 8,0 km/h (2 Bft) W-SW 247 0 min 0 UV-I 74 W/m 24,1 km/h (4 Bft)
30.04.2010 07:30 16,7 C 72 % 1005,2 hPa 0,0 mm 9,7 km/h (2 Bft) W-SW 247 0 min 0 UV-I 104 W/m 29,0 km/h (5 Bft)
30.04.2010 07:40 16,6 C 72 % 1005,3 hPa 0,0 mm 11,3 km/h (2 Bft) W-SW 247 0 min 0 UV-I 81 W/m 25,7 km/h (4 Bft)
30.04.2010 07:50 16,5 C 73 % 1005,4 hPa 0,0 mm 11,3 km/h (2 Bft) W 270 0 min 1 UV-I 121 W/m 27,4 km/h (4 Bft)
30.04.2010 08:00 16,4 C 73 % 1002,4 hPa 0,0 mm 10,8 km/h (2 Bft) W-SW 246 10 min 1 UV-I 166 W/m 22,5 km/h (4 Bft)
30.04.2010 08:10 16,4 C 72 % 1002,4 hPa 0,0 mm 11,3 km/h (2 Bft) W-SW 247 10 min 1 UV-I 278 W/m 27,4 km/h (4 Bft)
30.04.2010 08:20 16,5 C 72 % 1002,6 hPa 0,0 mm 11,3 km/h (2 Bft) W-SW 247 10 min 1 UV-I 301 W/m 30,6 km/h (5 Bft)
30.04.2010 08:30 16,5 C 72 % 1002,7 hPa 0,0 mm 11,3 km/h (2 Bft) W-SW 247 10 min 1 UV-I 302 W/m 27,4 km/h (4 Bft)
30.04.2010 08:40 16,6 C 71 % 1002,6 hPa 0,0 mm 11,3 km/h (2 Bft) W 270 10 min 1 UV-I 315 W/m 27,4 km/h (4 Bft)
30.04.2010 08:50 16,7 C 71 % 1002,7 hPa 0,0 mm 11,3 km/h (2 Bft) W 270 10 min 1 UV-I 346 W/m 25,7 km/h (4 Bft)
30.04.2010 09:00 16,9 C 70 % 1002,7 hPa 0,0 mm 9,7 km/h (2 Bft) W 270 10 min 2 UV-I 399 W/m 22,5 km/h (4 Bft)
30.04.2010 09:10 16,9 C 69 % 1002,8 hPa 0,0 mm 12,9 km/h (3 Bft) W 270 10 min 2 UV-I 420 W/m 27,4 km/h (4 Bft)
30.04.2010 09:20 16,9 C 69 % 1002,9 hPa 0,0 mm 11,3 km/h (2 Bft) W 270 10 min 2 UV-I 550 W/m 27,4 km/h (4 Bft)
30.04.2010 09:30 17,3 C 67 % 1003,0 hPa 0,0 mm 11,3 km/h (2 Bft) W-SW 247 10 min 2 UV-I 541 W/m 32,2 km/h (5 Bft)
30.04.2010 09:40 17,4 C 66 % 1003,5 hPa 0,0 mm 14,5 km/h (3 Bft) W-SW 247 10 min 2 UV-I 520 W/m 27,4 km/h (4 Bft)
30.04.2010 09:50 17,6 C 62 % 1003,8 hPa 0,0 mm 14,5 km/h (3 Bft) W-SW 247 10 min 3 UV-I 566 W/m 32,2 km/h (5 Bft)
30.04.2010 10:00 17,5 C 61 % 1003,9 hPa 0,0 mm 16,1 km/h (3 Bft) W-SW 247 10 min 3 UV-I 596 W/m 35,4 km/h (5 Bft)
30.04.2010 10:10 17,4 C 62 % 1004,0 hPa 0,0 mm 11,3 km/h (2 Bft) W 270 10 min 3 UV-I 570 W/m 27,4 km/h (4 Bft)
30.04.2010 10:20 17,8 C 61 % 1004,2 hPa 0,0 mm 12,9 km/h (3 Bft) W-SW 247 10 min 3 UV-I 612 W/m 24,1 km/h (4 Bft)
30.04.2010 10:30 17,8 C 60 % 1004,3 hPa 0,0 mm 12,9 km/h (3 Bft) W 270 10 min 3 UV-I 640 W/m 32,2 km/h (5 Bft)
30.04.2010 10:40 18,1 C 58 % 1004,5 hPa 0,0 mm 12,9 km/h (3 Bft) W 270 10 min 4 UV-I 682 W/m 29,0 km/h (5 Bft)
30.04.2010 10:50 17,8 C 59 % 1004,7 hPa 0,0 mm 14,5 km/h (3 Bft) W 270 10 min 4 UV-I 647 W/m 33,8 km/h (5 Bft)
30.04.2010 11:00 17,8 C 59 % 1005,0 hPa 0,0 mm 12,9 km/h (3 Bft) W-SW 247 10 min 4 UV-I 390 W/m 32,2 km/h (5 Bft)
30.04.2010 11:10 17,8 C 60 % 1005,2 hPa 0,0 mm 11,3 km/h (2 Bft) W 270 0 min 3 UV-I 348 W/m 30,6 km/h (5 Bft)
30.04.2010 11:20 17,7 C 60 % 1005,4 hPa 0,0 mm 11,3 km/h (2 Bft) W-SW 247 10 min 5 UV-I 823 W/m 25,7 km/h (4 Bft)
30.04.2010 11:30 18,3 C 60 % 1005,7 hPa 0,0 mm 9,7 km/h (2 Bft) W-SW 247 10 min 4 UV-I 512 W/m 25,7 km/h (4 Bft)
30.04.2010 11:40 18,0 C 61 % 1006,0 hPa 0,0 mm 11,3 km/h (2 Bft) W 270 0 min 3 UV-I 292 W/m 24,1 km/h (4 Bft)
30.04.2010 11:50 17,6 C 63 % 1006,4 hPa 0,0 mm 11,3 km/h (2 Bft) W-SW 247 10 min 3 UV-I 415 W/m 29,0 km/h (5 Bft)
30.04.2010 12:00 17,3 C 62 % 1006,7 hPa 0,0 mm 12,9 km/h (3 Bft) W-SW 247 0 min 3 UV-I 338 W/m 33,8 km/h (5 Bft)
30.04.2010 12:10 16,7 C 63 % 1007,0 hPa 0,0 mm 11,3 km/h (2 Bft) W 270 0 min 2 UV-I 227 W/m 27,4 km/h (4 Bft)
30.04.2010 12:20 16,5 C 63 % 1007,3 hPa 0,0 mm 16,1 km/h (3 Bft) W 270 0 min 2 UV-I 243 W/m 35,4 km/h (5 Bft)
30.04.2010 12:30 16,3 C 63 % 1006,8 hPa 0,0 mm 12,9 km/h (3 Bft) W-SW 247 0 min 2 UV-I 253 W/m 27,4 km/h (4 Bft)
30.04.2010 12:40 16,3 C 61 % 1007,0 hPa 0,0 mm 12,9 km/h (3 Bft) W 270 0 min 2 UV-I 236 W/m 30,6 km/h (5 Bft)
30.04.2010 12:50 16,6 C 60 % 1007,3 hPa 0,0 mm 14,5 km/h (3 Bft) W 270 10 min 5 UV-I 817 W/m 32,2 km/h (5 Bft)
30.04.2010 13:00 16,6 C 60 % 1007,5 hPa 0,0 mm 17,7 km/h (3 Bft) W-SW 247 0 min 2 UV-I 202 W/m 30,6 km/h (5 Bft)
30.04.2010 13:10 16,1 C 63 % 1007,7 hPa 0,0 mm 16,1 km/h (3 Bft) W-SW 247 0 min 2 UV-I 269 W/m 35,4 km/h (5 Bft)
30.04.2010 13:20 16,1 C 63 % 1007,2 hPa 0,0 mm 11,3 km/h (2 Bft) W-SW 247 0 min 2 UV-I 264 W/m 30,6 km/h (5 Bft)
30.04.2010 13:30 16,0 C 63 % 1008,2 hPa 0,0 mm 14,5 km/h (3 Bft) W 270 0 min 2 UV-I 211 W/m 30,6 km/h (5 Bft)
30.04.2010 13:40 15,9 C 64 % 1008,1 hPa 0,0 mm 11,3 km/h (2 Bft) W-SW 247 0 min 2 UV-I 200 W/m 25,7 km/h (4 Bft)
30.04.2010 13:50 15,9 C 64 % 1008,1 hPa 0,0 mm 11,3 km/h (2 Bft) W-SW 247 0 min 2 UV-I 225 W/m 30,6 km/h (5 Bft)
30.04.2010 14:00 15,9 C 65 % 1008,2 hPa 0,0 mm 11,3 km/h (2 Bft) W-SW 247 0 min 2 UV-I 234 W/m 27,4 km/h (4 Bft)
30.04.2010 14:10 15,9 C 65 % 1008,2 hPa 0,0 mm 12,9 km/h (3 Bft) W 270 0 min 2 UV-I 246 W/m 29,0 km/h (5 Bft)
30.04.2010 14:20 15,9 C 66 % 1007,9 hPa 0,0 mm 11,3 km/h (2 Bft) W 270 0 min 2 UV-I 241 W/m 25,7 km/h (4 Bft)
30.04.2010 14:30 15,6 C 68 % 1008,3 hPa 0,0 mm 11,3 km/h (2 Bft) W 270 0 min 1 UV-I 86 W/m 25,7 km/h (4 Bft)
30.04.2010 14:40 15,3 C 69 % 1008,5 hPa 0,0 mm 8,0 km/h (2 Bft) W-SW 247 0 min 2 UV-I 178 W/m 20,9 km/h (4 Bft)
30.04.2010 14:50 15,3 C 69 % 1008,6 hPa 0,0 mm 9,7 km/h (2 Bft) W 270 0 min 2 UV-I 244 W/m 22,5 km/h (4 Bft)
30.04.2010 15:00 15,3 C 70 % 1008,3 hPa 0,0 mm 9,7 km/h (2 Bft) W 270 0 min 2 UV-I 267 W/m 22,5 km/h (4 Bft)
30.04.2010 15:10 15,4 C 68 % 1008,3 hPa 0,0 mm 11,3 km/h (2 Bft) W 270 0 min 2 UV-I 213 W/m 25,7 km/h (4 Bft)
30.04.2010 15:20 15,5 C 68 % 1008,4 hPa 0,0 mm 11,3 km/h (2 Bft) W-SW 247 0 min 2 UV-I 214 W/m 30,6 km/h (5 Bft)
30.04.2010 15:30 15,5 C 68 % 1008,9 hPa 0,0 mm 14,5 km/h (3 Bft) W-SW 247 0 min 2 UV-I 241 W/m 33,8 km/h (5 Bft)
30.04.2010 15:40 15,6 C 67 % 1008,8 hPa 0,0 mm 12,9 km/h (3 Bft) W-SW 247 0 min 2 UV-I 322 W/m 30,6 km/h (5 Bft)
30.04.2010 15:50 15,7 C 66 % 1008,4 hPa 0,0 mm 12,9 km/h (3 Bft) W-SW 247 0 min 2 UV-I 292 W/m 29,0 km/h (5 Bft)
30.04.2010 16:00 15,9 C 66 % 1008,6 hPa 0,0 mm 11,1 km/h (2 Bft) W-SW 254 0 min 2 UV-I 304 W/m 17,7 km/h (3 Bft)
30.04.2010 16:10 16,1 C 65 % 1008,8 hPa 0,0 mm 11,3 km/h (2 Bft) W-SW 247 0 min 2 UV-I 325 W/m 30,6 km/h (5 Bft)
30.04.2010 16:20 16,2 C 64 % 1008,8 hPa 0,0 mm 9,7 km/h (2 Bft) SW 225 0 min 2 UV-I 229 W/m 20,9 km/h (4 Bft)
30.04.2010 16:30 16,2 C 65 % 1008,7 hPa 0,0 mm 6,4 km/h (2 Bft) W-SW 247 0 min 2 UV-I 218 W/m 24,1 km/h (4 Bft)
30.04.2010 16:40 16,2 C 64 % 1008,5 hPa 0,0 mm 6,4 km/h (2 Bft) W-SW 247 0 min 1 UV-I 218 W/m 22,5 km/h (4 Bft)
30.04.2010 16:50 16,1 C 66 % 1008,6 hPa 0,0 mm 4,8 km/h (1 Bft) W-SW 247 0 min 1 UV-I 193 W/m 17,7 km/h (3 Bft)
30.04.2010 17:00 16,1 C 65 % 1008,7 hPa 0,0 mm 8,0 km/h (2 Bft) W 270 0 min 1 UV-I 192 W/m 19,3 km/h (3 Bft)
30.04.2010 17:10 15,9 C 64 % 1008,6 hPa 0,0 mm 8,0 km/h (2 Bft) W 270 0 min 1 UV-I 125 W/m 22,5 km/h (4 Bft)
30.04.2010 17:20 15,8 C 64 % 1008,6 hPa 0,0 mm 6,4 km/h (2 Bft) W 270 0 min 1 UV-I 141 W/m 19,3 km/h (3 Bft)
30.04.2010 17:30 15,9 C 64 % 1008,5 hPa 0,0 mm 6,4 km/h (2 Bft) W 270 0 min 1 UV-I 183 W/m 19,3 km/h (3 Bft)
30.04.2010 17:40 16,1 C 63 % 1008,4 hPa 0,0 mm 8,0 km/h (2 Bft) W 270 10 min 2 UV-I 327 W/m 19,3 km/h (3 Bft)
30.04.2010 17:50 16,5 C 61 % 1008,5 hPa 0,0 mm 8,0 km/h (2 Bft) W-SW 247 10 min 2 UV-I 431 W/m 20,9 km/h (4 Bft)
30.04.2010 18:00 16,2 C 62 % 1008,5 hPa 0,0 mm 4,8 km/h (1 Bft) W 270 0 min 1 UV-I 120 W/m 16,1 km/h (3 Bft)
30.04.2010 18:10 16,0 C 63 % 1008,6 hPa 0,0 mm 4,8 km/h (1 Bft) W-SW 247 0 min 0 UV-I 86 W/m 11,3 km/h (2 Bft)
30.04.2010 18:20 15,9 C 64 % 1008,6 hPa 0,0 mm 4,8 km/h (1 Bft) W 270 10 min 1 UV-I 424 W/m 11,3 km/h (2 Bft)
30.04.2010 18:30 16,0 C 65 % 1008,6 hPa 0,0 mm 4,8 km/h (1 Bft) W 270 10 min 1 UV-I 272 W/m 22,5 km/h (4 Bft)
30.04.2010 18:40 15,8 C 65 % 1008,7 hPa 0,0 mm 4,8 km/h (1 Bft) W-NW 292 10 min 1 UV-I 209 W/m 17,7 km/h (3 Bft)
30.04.2010 18:50 15,6 C 65 % 1008,7 hPa 0,0 mm 6,4 km/h (2 Bft) W-NW 292 10 min 1 UV-I 239 W/m 19,3 km/h (3 Bft)
30.04.2010 19:00 15,4 C 66 % 1008,2 hPa 0,0 mm 4,8 km/h (1 Bft) W 270 10 min 1 UV-I 185 W/m 12,9 km/h (3 Bft)
30.04.2010 19:10 15,4 C 66 % 1008,4 hPa 0,0 mm 3,2 km/h (1 Bft) W-NW 292 10 min 1 UV-I 200 W/m 11,3 km/h (2 Bft)
30.04.2010 19:20 15,1 C 68 % 1008,6 hPa 0,0 mm 8,0 km/h (2 Bft) W-NW 292 10 min 1 UV-I 199 W/m 22,5 km/h (4 Bft)
30.04.2010 19:30 14,8 C 68 % 1008,8 hPa 0,0 mm 6,4 km/h (2 Bft) W 270 10 min 0 UV-I 163 W/m 19,3 km/h (3 Bft)
30.04.2010 19:40 14,4 C 69 % 1008,8 hPa 0,0 mm 6,4 km/h (2 Bft) W-NW 292 10 min 0 UV-I 109 W/m 20,9 km/h (4 Bft)
30.04.2010 19:50 14,2 C 71 % 1009,0 hPa 0,0 mm 4,8 km/h (1 Bft) W-NW 292 10 min 0 UV-I 72 W/m 20,9 km/h (4 Bft)
30.04.2010 20:00 13,9 C 70 % 1009,0 hPa 0,0 mm 4,8 km/h (1 Bft) W-NW 292 0 min 0 UV-I 53 W/m 14,5 km/h (3 Bft)
30.04.2010 20:10 13,6 C 69 % 1009,2 hPa 0,0 mm 4,8 km/h (1 Bft) W 270 0 min 0 UV-I 39 W/m 16,1 km/h (3 Bft)
30.04.2010 20:20 13,3 C 68 % 1009,3 hPa 0,0 mm 4,8 km/h (1 Bft) W-NW 292 0 min 0 UV-I 25 W/m 14,5 km/h (3 Bft)
30.04.2010 20:30 13,1 C 68 % 1009,4 hPa 0,0 mm 4,8 km/h (1 Bft) W 270 0 min 0 UV-I 14 W/m 17,7 km/h (3 Bft)
30.04.2010 20:40 12,9 C 69 % 1009,6 hPa 0,0 mm 1,6 km/h (1 Bft) W 270 0 min 0 UV-I 9 W/m 11,3 km/h (2 Bft)
30.04.2010 20:50 12,7 C 69 % 1009,7 hPa 0,0 mm 3,2 km/h (1 Bft) W-SW 247 0 min 0 UV-I 0 W/m 14,5 km/h (3 Bft)
30.04.2010 21:00 12,7 C 69 % 1010,0 hPa 0,0 mm 3,2 km/h (1 Bft) W 270 0 min 0 UV-I 0 W/m 9,7 km/h (2 Bft)
30.04.2010 21:10 12,7 C 70 % 1010,0 hPa 0,0 mm 1,6 km/h (1 Bft) W 270 0 min 0 UV-I 0 W/m 6,4 km/h (2 Bft)
30.04.2010 21:20 12,6 C 70 % 1010,0 hPa 0,0 mm 0,0 km/h (0 Bft) W 270 0 min 0 UV-I 0 W/m 3,2 km/h (1 Bft)
30.04.2010 21:30 12,6 C 71 % 1010,1 hPa 0,0 mm 0,0 km/h (0 Bft) W-NW 292 0 min 0 UV-I 0 W/m 1,6 km/h (1 Bft)
30.04.2010 21:40 12,6 C 71 % 1010,2 hPa 0,0 mm 0,0 km/h (0 Bft) SW 225 0 min 0 UV-I 0 W/m 6,4 km/h (2 Bft)
30.04.2010 21:50 12,6 C 71 % 1010,2 hPa 0,0 mm 0,0 km/h (0 Bft) W-SW 247 0 min 0 UV-I 0 W/m 4,8 km/h (1 Bft)
30.04.2010 22:00 12,5 C 71 % 1010,3 hPa 0,0 mm 1,6 km/h (1 Bft) W-SW 247 0 min 0 UV-I 0 W/m 8,0 km/h (2 Bft)
30.04.2010 22:10 12,4 C 70 % 1010,2 hPa 0,0 mm 3,2 km/h (1 Bft) W-SW 247 0 min 0 UV-I 0 W/m 9,7 km/h (2 Bft)
30.04.2010 22:20 12,3 C 70 % 1010,3 hPa 0,0 mm 1,6 km/h (1 Bft) W-SW 247 0 min 0 UV-I 0 W/m 8,0 km/h (2 Bft)
30.04.2010 22:30 12,2 C 70 % 1010,1 hPa 0,0 mm 1,6 km/h (1 Bft) W 270 0 min 0 UV-I 0 W/m 8,0 km/h (2 Bft)
30.04.2010 22:40 12,1 C 71 % 1010,0 hPa 0,0 mm 1,6 km/h (1 Bft) W-SW 247 0 min 0 UV-I 0 W/m 6,4 km/h (2 Bft)
30.04.2010 22:50 11,9 C 72 % 1010,2 hPa 0,0 mm 1,6 km/h (1 Bft) W-SW 247 0 min 0 UV-I 0 W/m 4,8 km/h (1 Bft)
30.04.2010 23:00 11,8 C 73 % 1010,2 hPa 0,0 mm 0,0 km/h (0 Bft) W-SW 247 0 min 0 UV-I 0 W/m 3,2 km/h (1 Bft)
30.04.2010 23:10 11,7 C 73 % 1007,9 hPa 0,0 mm 0,0 km/h (0 Bft) W-SW 247 0 min 0 UV-I 0 W/m 3,2 km/h (1 Bft)
30.04.2010 23:20 11,5 C 73 % 1010,2 hPa 0,0 mm 0,0 km/h (0 Bft) W-SW 247 0 min 0 UV-I 0 W/m 4,8 km/h (1 Bft)
30.04.2010 23:30 11,4 C 74 % 1010,1 hPa 0,0 mm 0,0 km/h (0 Bft) W-SW 247 0 min 0 UV-I 0 W/m 4,8 km/h (1 Bft)
30.04.2010 23:40 11,2 C 75 % 1010,1 hPa 0,0 mm 0,0 km/h (0 Bft) N 0 0 min 0 UV-I 0 W/m 0,0 km/h (0 Bft)
30.04.2010 23:50 11,0 C 76 % 1010,0 hPa 0,0 mm 0,0 km/h (0 Bft) W-SW 247 0 min 0 UV-I 0 W/m 1,6 km/h (1 Bft)
_ Min-Zeit 23:50 03:20 03:50 - 00:00 - - - - - 23:40
Minimum _ 10,9 C 51 % 1002,3 hPa - 0,0 km/h (0 Bft) - - - - - 0,0 km/h (0 Bft)
_ Max-Zeit 03:20 23:50 22:00 00:00 13:00 - - 08:00 11:20 11:20 06:20
Maximum _ 20,3 C 76 % 1010,3 hPa 0,0 mm 17,7 km/h
W-SW (3 Bft)
- - 10 min 5 UV-I 823 W/m 37,0 km/h
W (5 Bft)
Durchschnitt _ 16,5 C 64 % 1006,2 hPa #0,0 mm 7,1 km/h (2 Bft) W-SW - #5:50 h 2 UV-I 271 W/m 18,9 km/h (3 Bft)